sensor_id;sensor_type;location;lat;lon;timestamp;pressure;altitude;pressure_sealevel;temperature
15062;BMP180;7630;50.306;8.566;2023-07-20T00:03:58;97690.00;;;18.70
15062;BMP180;7630;50.306;8.566;2023-07-20T00:07:59;97679.00;;;18.70
15062;BMP180;7630;50.306;8.566;2023-07-20T00:12:00;97683.00;;;18.50
15062;BMP180;7630;50.306;8.566;2023-07-20T00:16:02;97681.00;;;19.20
15062;BMP180;7630;50.306;8.566;2023-07-20T00:20:03;97680.00;;;19.10
15062;BMP180;7630;50.306;8.566;2023-07-20T00:24:06;97689.00;;;19.00
15062;BMP180;7630;50.306;8.566;2023-07-20T00:28:07;97686.00;;;18.60
15062;BMP180;7630;50.306;8.566;2023-07-20T00:32:08;97680.00;;;18.40
15062;BMP180;7630;50.306;8.566;2023-07-20T00:36:09;97681.00;;;18.70
15062;BMP180;7630;50.306;8.566;2023-07-20T00:40:10;97680.00;;;18.30
15062;BMP180;7630;50.306;8.566;2023-07-20T00:44:12;97688.00;;;18.50
15062;BMP180;7630;50.306;8.566;2023-07-20T00:48:13;97687.00;;;18.40
15062;BMP180;7630;50.306;8.566;2023-07-20T00:52:15;97686.00;;;18.70
15062;BMP180;7630;50.306;8.566;2023-07-20T00:56:19;97686.00;;;18.10
15062;BMP180;7630;50.306;8.566;2023-07-20T01:00:20;97690.00;;;17.90
15062;BMP180;7630;50.306;8.566;2023-07-20T01:04:22;97682.00;;;18.50
15062;BMP180;7630;50.306;8.566;2023-07-20T01:12:45;97687.00;;;17.90
15062;BMP180;7630;50.306;8.566;2023-07-20T01:16:46;97680.00;;;18.10
15062;BMP180;7630;50.306;8.566;2023-07-20T01:20:50;97688.00;;;18.10
15062;BMP180;7630;50.306;8.566;2023-07-20T01:24:58;97683.00;;;18.30
15062;BMP180;7630;50.306;8.566;2023-07-20T01:33:06;97680.00;;;18.30
15062;BMP180;7630;50.306;8.566;2023-07-20T01:37:09;97685.00;;;17.70
15062;BMP180;7630;50.306;8.566;2023-07-20T01:41:11;97683.00;;;18.00
15062;BMP180;7630;50.306;8.566;2023-07-20T01:45:13;97675.00;;;18.40
15062;BMP180;7630;50.306;8.566;2023-07-20T01:49:14;97687.00;;;18.00
15062;BMP180;7630;50.306;8.566;2023-07-20T01:53:15;97683.00;;;18.00
15062;BMP180;7630;50.306;8.566;2023-07-20T01:57:16;97686.00;;;17.70
15062;BMP180;7630;50.306;8.566;2023-07-20T02:01:17;97689.00;;;17.70
15062;BMP180;7630;50.306;8.566;2023-07-20T02:05:19;97695.00;;;17.60
15062;BMP180;7630;50.306;8.566;2023-07-20T02:09:20;97697.00;;;17.60
15062;BMP180;7630;50.306;8.566;2023-07-20T02:13:21;97694.00;;;18.40
15062;BMP180;7630;50.306;8.566;2023-07-20T02:17:22;97693.00;;;18.20
15062;BMP180;7630;50.306;8.566;2023-07-20T02:21:24;97692.00;;;18.30
15062;BMP180;7630;50.306;8.566;2023-07-20T02:25:25;97695.00;;;18.00
15062;BMP180;7630;50.306;8.566;2023-07-20T02:29:26;97694.00;;;18.30
15062;BMP180;7630;50.306;8.566;2023-07-20T02:33:27;97700.00;;;17.90
15062;BMP180;7630;50.306;8.566;2023-07-20T02:37:28;97693.00;;;18.00
15062;BMP180;7630;50.306;8.566;2023-07-20T02:41:33;97687.00;;;17.50
15062;BMP180;7630;50.306;8.566;2023-07-20T02:45:35;97681.00;;;18.30
15062;BMP180;7630;50.306;8.566;2023-07-20T02:49:38;97686.00;;;17.80
15062;BMP180;7630;50.306;8.566;2023-07-20T02:53:39;97697.00;;;18.40
15062;BMP180;7630;50.306;8.566;2023-07-20T02:57:40;97693.00;;;17.90
15062;BMP180;7630;50.306;8.566;2023-07-20T03:01:41;97705.00;;;18.60
15062;BMP180;7630;50.306;8.566;2023-07-20T03:05:45;97704.00;;;18.20
15062;BMP180;7630;50.306;8.566;2023-07-20T03:09:46;97687.00;;;18.30
15062;BMP180;7630;50.306;8.566;2023-07-20T03:13:47;97690.00;;;18.30
15062;BMP180;7630;50.306;8.566;2023-07-20T03:17:49;97694.00;;;18.80
15062;BMP180;7630;50.306;8.566;2023-07-20T03:21:50;97696.00;;;18.70
15062;BMP180;7630;50.306;8.566;2023-07-20T03:25:51;97690.00;;;18.80
15062;BMP180;7630;50.306;8.566;2023-07-20T03:29:54;97693.00;;;19.10
15062;BMP180;7630;50.306;8.566;2023-07-20T03:33:55;97685.00;;;19.00
15062;BMP180;7630;50.306;8.566;2023-07-20T03:37:56;97681.00;;;18.50
15062;BMP180;7630;50.306;8.566;2023-07-20T03:41:58;97686.00;;;18.20
15062;BMP180;7630;50.306;8.566;2023-07-20T03:46:00;97696.00;;;18.70
15062;BMP180;7630;50.306;8.566;2023-07-20T03:50:01;97693.00;;;18.50
15062;BMP180;7630;50.306;8.566;2023-07-20T03:54:07;97689.00;;;18.60
15062;BMP180;7630;50.306;8.566;2023-07-20T03:58:07;97698.00;;;18.20
15062;BMP180;7630;50.306;8.566;2023-07-20T04:02:08;97700.00;;;18.10
15062;BMP180;7630;50.306;8.566;2023-07-20T04:06:09;97709.00;;;17.90
15062;BMP180;7630;50.306;8.566;2023-07-20T04:10:11;97700.00;;;18.00
15062;BMP180;7630;50.306;8.566;2023-07-20T04:14:12;97697.00;;;18.10
15062;BMP180;7630;50.306;8.566;2023-07-20T04:18:13;97705.00;;;17.80
15062;BMP180;7630;50.306;8.566;2023-07-20T04:22:14;97699.00;;;18.00
15062;BMP180;7630;50.306;8.566;2023-07-20T04:26:16;97694.00;;;18.20
15062;BMP180;7630;50.306;8.566;2023-07-20T04:30:17;97693.00;;;17.60
15062;BMP180;7630;50.306;8.566;2023-07-20T04:34:20;97704.00;;;17.60
15062;BMP180;7630;50.306;8.566;2023-07-20T04:38:22;97703.00;;;18.50
15062;BMP180;7630;50.306;8.566;2023-07-20T04:42:23;97700.00;;;18.20
15062;BMP180;7630;50.306;8.566;2023-07-20T04:46:24;97707.00;;;18.70
15062;BMP180;7630;50.306;8.566;2023-07-20T04:50:25;97710.00;;;18.90
15062;BMP180;7630;50.306;8.566;2023-07-20T04:54:27;97706.00;;;18.50
15062;BMP180;7630;50.306;8.566;2023-07-20T04:58:28;97709.00;;;18.90
15062;BMP180;7630;50.306;8.566;2023-07-20T05:02:29;97704.00;;;19.40
15062;BMP180;7630;50.306;8.566;2023-07-20T05:06:31;97712.00;;;19.10
15062;BMP180;7630;50.306;8.566;2023-07-20T05:10:32;97709.00;;;19.50
15062;BMP180;7630;50.306;8.566;2023-07-20T05:14:33;97703.00;;;19.50
15062;BMP180;7630;50.306;8.566;2023-07-20T05:18:34;97709.00;;;19.20
15062;BMP180;7630;50.306;8.566;2023-07-20T05:22:36;97706.00;;;19.00
15062;BMP180;7630;50.306;8.566;2023-07-20T05:26:39;97720.00;;;19.70
15062;BMP180;7630;50.306;8.566;2023-07-20T05:30:40;97715.00;;;19.10
15062;BMP180;7630;50.306;8.566;2023-07-20T05:34:41;97719.00;;;19.60
15062;BMP180;7630;50.306;8.566;2023-07-20T05:38:42;97730.00;;;19.50
15062;BMP180;7630;50.306;8.566;2023-07-20T05:42:44;97726.00;;;20.10
15062;BMP180;7630;50.306;8.566;2023-07-20T05:46:45;97731.00;;;19.90
15062;BMP180;7630;50.306;8.566;2023-07-20T05:50:48;97729.00;;;19.60
15062;BMP180;7630;50.306;8.566;2023-07-20T05:54:50;97732.00;;;20.30
15062;BMP180;7630;50.306;8.566;2023-07-20T05:58:51;97736.00;;;20.10
15062;BMP180;7630;50.306;8.566;2023-07-20T06:02:53;97746.00;;;20.30
15062;BMP180;7630;50.306;8.566;2023-07-20T06:06:55;97738.00;;;19.80
15062;BMP180;7630;50.306;8.566;2023-07-20T06:10:57;97737.00;;;20.60
15062;BMP180;7630;50.306;8.566;2023-07-20T06:15:03;97753.00;;;23.00
15062;BMP180;7630;50.306;8.566;2023-07-20T06:19:05;97750.00;;;25.00
15062;BMP180;7630;50.306;8.566;2023-07-20T06:23:06;97756.00;;;27.20
15062;BMP180;7630;50.306;8.566;2023-07-20T06:27:07;97762.00;;;24.50
15062;BMP180;7630;50.306;8.566;2023-07-20T06:31:08;97772.00;;;23.50
15062;BMP180;7630;50.306;8.566;2023-07-20T06:35:10;97772.00;;;21.90
15062;BMP180;7630;50.306;8.566;2023-07-20T06:39:11;97774.00;;;21.50
15062;BMP180;7630;50.306;8.566;2023-07-20T06:43:14;97773.00;;;20.80
15062;BMP180;7630;50.306;8.566;2023-07-20T06:47:17;97777.00;;;21.10
15062;BMP180;7630;50.306;8.566;2023-07-20T06:51:18;97782.00;;;20.40
15062;BMP180;7630;50.306;8.566;2023-07-20T06:55:19;97784.00;;;20.80
15062;BMP180;7630;50.306;8.566;2023-07-20T06:59:22;97782.00;;;21.10
15062;BMP180;7630;50.306;8.566;2023-07-20T07:03:25;97782.00;;;20.60
15062;BMP180;7630;50.306;8.566;2023-07-20T07:07:28;97789.00;;;21.40
15062;BMP180;7630;50.306;8.566;2023-07-20T07:11:29;97789.00;;;21.60
15062;BMP180;7630;50.306;8.566;2023-07-20T07:15:30;97788.00;;;21.20
15062;BMP180;7630;50.306;8.566;2023-07-20T07:19:33;97779.00;;;21.90
15062;BMP180;7630;50.306;8.566;2023-07-20T07:23:34;97799.00;;;20.60
15062;BMP180;7630;50.306;8.566;2023-07-20T07:27:35;97782.00;;;21.20
15062;BMP180;7630;50.306;8.566;2023-07-20T07:31:37;97792.00;;;21.20
15062;BMP180;7630;50.306;8.566;2023-07-20T07:35:39;97795.00;;;21.70
15062;BMP180;7630;50.306;8.566;2023-07-20T07:39:40;97799.00;;;20.80
15062;BMP180;7630;50.306;8.566;2023-07-20T07:43:41;97796.00;;;22.00
15062;BMP180;7630;50.306;8.566;2023-07-20T07:47:43;97799.00;;;22.80
15062;BMP180;7630;50.306;8.566;2023-07-20T07:51:44;97796.00;;;23.10
15062;BMP180;7630;50.306;8.566;2023-07-20T07:55:47;97790.00;;;23.00
15062;BMP180;7630;50.306;8.566;2023-07-20T07:59:48;97791.00;;;24.20
15062;BMP180;7630;50.306;8.566;2023-07-20T08:03:50;97803.00;;;23.30
15062;BMP180;7630;50.306;8.566;2023-07-20T08:07:52;97795.00;;;21.10
15062;BMP180;7630;50.306;8.566;2023-07-20T08:11:53;97797.00;;;21.30
15062;BMP180;7630;50.306;8.566;2023-07-20T08:15:54;97797.00;;;21.50
15062;BMP180;7630;50.306;8.566;2023-07-20T08:19:56;97807.00;;;22.00
15062;BMP180;7630;50.306;8.566;2023-07-20T08:23:57;97805.00;;;24.00
15062;BMP180;7630;50.306;8.566;2023-07-20T08:27:58;97817.00;;;22.80
15062;BMP180;7630;50.306;8.566;2023-07-20T08:32:01;97811.00;;;21.60
15062;BMP180;7630;50.306;8.566;2023-07-20T08:36:03;97807.00;;;21.00
15062;BMP180;7630;50.306;8.566;2023-07-20T08:40:05;97816.00;;;21.80
15062;BMP180;7630;50.306;8.566;2023-07-20T08:44:09;97815.00;;;22.40
15062;BMP180;7630;50.306;8.566;2023-07-20T08:48:11;97809.00;;;23.20
15062;BMP180;7630;50.306;8.566;2023-07-20T08:52:12;97807.00;;;22.50
15062;BMP180;7630;50.306;8.566;2023-07-20T08:56:15;97804.00;;;23.00
15062;BMP180;7630;50.306;8.566;2023-07-20T09:00:19;97803.00;;;23.70
15062;BMP180;7630;50.306;8.566;2023-07-20T09:04:20;97807.00;;;22.70
15062;BMP180;7630;50.306;8.566;2023-07-20T09:08:22;97800.00;;;23.00
15062;BMP180;7630;50.306;8.566;2023-07-20T09:12:23;97801.00;;;22.30
15062;BMP180;7630;50.306;8.566;2023-07-20T09:16:24;97805.00;;;23.50
15062;BMP180;7630;50.306;8.566;2023-07-20T09:20:27;97807.00;;;23.60
15062;BMP180;7630;50.306;8.566;2023-07-20T09:24:28;97804.00;;;24.40
15062;BMP180;7630;50.306;8.566;2023-07-20T09:28:32;97807.00;;;24.00
15062;BMP180;7630;50.306;8.566;2023-07-20T09:36:45;97815.00;;;23.10
15062;BMP180;7630;50.306;8.566;2023-07-20T09:40:50;97809.00;;;24.10
15062;BMP180;7630;50.306;8.566;2023-07-20T09:44:53;97804.00;;;25.60
15062;BMP180;7630;50.306;8.566;2023-07-20T09:48:55;97809.00;;;24.30
15062;BMP180;7630;50.306;8.566;2023-07-20T09:52:58;97812.00;;;23.30
15062;BMP180;7630;50.306;8.566;2023-07-20T09:57:03;97809.00;;;22.60
15062;BMP180;7630;50.306;8.566;2023-07-20T10:01:06;97803.00;;;21.20
15062;BMP180;7630;50.306;8.566;2023-07-20T10:05:09;97806.00;;;23.30
15062;BMP180;7630;50.306;8.566;2023-07-20T10:09:12;97799.00;;;24.50
15062;BMP180;7630;50.306;8.566;2023-07-20T10:13:18;97790.00;;;25.00
15062;BMP180;7630;50.306;8.566;2023-07-20T10:17:20;97788.00;;;25.20
15062;BMP180;7630;50.306;8.566;2023-07-20T10:21:22;97779.00;;;24.40
15062;BMP180;7630;50.306;8.566;2023-07-20T10:25:26;97777.00;;;25.00
15062;BMP180;7630;50.306;8.566;2023-07-20T10:29:28;97787.00;;;25.20
15062;BMP180;7630;50.306;8.566;2023-07-20T10:33:31;97656.00;;;24.60
15062;BMP180;7630;50.306;8.566;2023-07-20T10:37:52;97784.00;;;23.40
15062;BMP180;7630;50.306;8.566;2023-07-20T10:42:09;97771.00;;;24.60
15062;BMP180;7630;50.306;8.566;2023-07-20T10:46:12;97765.00;;;24.60
15062;BMP180;7630;50.306;8.566;2023-07-20T10:50:13;97755.00;;;24.10
15062;BMP180;7630;50.306;8.566;2023-07-20T10:54:33;97758.00;;;24.20
15062;BMP180;7630;50.306;8.566;2023-07-20T10:58:22;97772.00;;;25.00
15062;BMP180;7630;50.306;8.566;2023-07-20T11:02:25;97766.00;;;26.20
15062;BMP180;7630;50.306;8.566;2023-07-20T11:06:29;97747.00;;;26.60
15062;BMP180;7630;50.306;8.566;2023-07-20T11:10:30;97762.00;;;26.70
15062;BMP180;7630;50.306;8.566;2023-07-20T11:14:32;97755.00;;;25.20
15062;BMP180;7630;50.306;8.566;2023-07-20T11:18:35;97758.00;;;25.20
15062;BMP180;7630;50.306;8.566;2023-07-20T11:22:38;97754.00;;;26.20
15062;BMP180;7630;50.306;8.566;2023-07-20T11:26:40;97750.00;;;26.10
15062;BMP180;7630;50.306;8.566;2023-07-20T11:30:43;97723.00;;;25.10
15062;BMP180;7630;50.306;8.566;2023-07-20T11:34:46;97742.00;;;26.10
15062;BMP180;7630;50.306;8.566;2023-07-20T11:38:48;97732.00;;;26.20
15062;BMP180;7630;50.306;8.566;2023-07-20T11:42:49;97732.00;;;27.10
15062;BMP180;7630;50.306;8.566;2023-07-20T11:51:04;97728.00;;;26.00
15062;BMP180;7630;50.306;8.566;2023-07-20T11:55:07;97731.00;;;26.30
15062;BMP180;7630;50.306;8.566;2023-07-20T11:59:08;97735.00;;;26.70
15062;BMP180;7630;50.306;8.566;2023-07-20T12:03:09;97726.00;;;26.70
15062;BMP180;7630;50.306;8.566;2023-07-20T12:07:11;97724.00;;;27.10
15062;BMP180;7630;50.306;8.566;2023-07-20T12:11:12;97716.00;;;29.40
15062;BMP180;7630;50.306;8.566;2023-07-20T12:15:20;97718.00;;;30.00
15062;BMP180;7630;50.306;8.566;2023-07-20T12:19:20;97717.00;;;29.70
15062;BMP180;7630;50.306;8.566;2023-07-20T12:23:21;97726.00;;;29.60
15062;BMP180;7630;50.306;8.566;2023-07-20T12:27:27;97716.00;;;31.50
15062;BMP180;7630;50.306;8.566;2023-07-20T12:31:28;97712.00;;;31.60
15062;BMP180;7630;50.306;8.566;2023-07-20T12:35:31;97710.00;;;31.60
15062;BMP180;7630;50.306;8.566;2023-07-20T12:39:32;97718.00;;;30.80
15062;BMP180;7630;50.306;8.566;2023-07-20T12:43:33;97716.00;;;32.70
15062;BMP180;7630;50.306;8.566;2023-07-20T12:47:35;97718.00;;;31.90
15062;BMP180;7630;50.306;8.566;2023-07-20T12:51:36;97712.00;;;31.70
15062;BMP180;7630;50.306;8.566;2023-07-20T12:55:38;97709.00;;;32.70
15062;BMP180;7630;50.306;8.566;2023-07-20T12:59:40;97700.00;;;30.20
15062;BMP180;7630;50.306;8.566;2023-07-20T13:03:41;97695.00;;;32.30
15062;BMP180;7630;50.306;8.566;2023-07-20T13:07:44;97697.00;;;31.30
15062;BMP180;7630;50.306;8.566;2023-07-20T13:11:48;97694.00;;;31.60
15062;BMP180;7630;50.306;8.566;2023-07-20T13:15:49;97685.00;;;31.00
15062;BMP180;7630;50.306;8.566;2023-07-20T13:19:51;97693.00;;;30.60
15062;BMP180;7630;50.306;8.566;2023-07-20T13:23:52;97692.00;;;29.60
15062;BMP180;7630;50.306;8.566;2023-07-20T13:27:53;97684.00;;;29.50
15062;BMP180;7630;50.306;8.566;2023-07-20T13:31:55;97684.00;;;28.20
15062;BMP180;7630;50.306;8.566;2023-07-20T13:35:56;97690.00;;;28.10
15062;BMP180;7630;50.306;8.566;2023-07-20T13:39:57;97688.00;;;27.80
15062;BMP180;7630;50.306;8.566;2023-07-20T13:43:58;97697.00;;;26.80
15062;BMP180;7630;50.306;8.566;2023-07-20T13:48:00;97691.00;;;27.20
15062;BMP180;7630;50.306;8.566;2023-07-20T13:52:03;97697.00;;;26.90
15062;BMP180;7630;50.306;8.566;2023-07-20T13:56:06;97688.00;;;27.10
15062;BMP180;7630;50.306;8.566;2023-07-20T14:00:10;97691.00;;;27.20
15062;BMP180;7630;50.306;8.566;2023-07-20T14:04:12;97689.00;;;27.30
15062;BMP180;7630;50.306;8.566;2023-07-20T14:08:13;97694.00;;;26.70
15062;BMP180;7630;50.306;8.566;2023-07-20T14:12:14;97687.00;;;26.60
15062;BMP180;7630;50.306;8.566;2023-07-20T14:16:17;97687.00;;;25.90
15062;BMP180;7630;50.306;8.566;2023-07-20T14:20:20;97686.00;;;26.40
15062;BMP180;7630;50.306;8.566;2023-07-20T14:24:23;97674.00;;;26.50
15062;BMP180;7630;50.306;8.566;2023-07-20T14:28:24;97684.00;;;25.20
15062;BMP180;7630;50.306;8.566;2023-07-20T14:32:26;97678.00;;;26.00
15062;BMP180;7630;50.306;8.566;2023-07-20T14:36:27;97684.00;;;27.00
15062;BMP180;7630;50.306;8.566;2023-07-20T14:40:29;97678.00;;;26.90
15062;BMP180;7630;50.306;8.566;2023-07-20T14:44:32;97673.00;;;26.70
15062;BMP180;7630;50.306;8.566;2023-07-20T14:48:33;97671.00;;;25.50
15062;BMP180;7630;50.306;8.566;2023-07-20T14:52:35;97663.00;;;25.60
15062;BMP180;7630;50.306;8.566;2023-07-20T14:56:38;97672.00;;;26.20
15062;BMP180;7630;50.306;8.566;2023-07-20T15:00:39;97670.00;;;26.20
15062;BMP180;7630;50.306;8.566;2023-07-20T15:04:47;97666.00;;;26.10
15062;BMP180;7630;50.306;8.566;2023-07-20T15:08:50;97663.00;;;26.40
15062;BMP180;7630;50.306;8.566;2023-07-20T15:12:51;97662.00;;;27.10
15062;BMP180;7630;50.306;8.566;2023-07-20T15:16:52;97661.00;;;27.50
15062;BMP180;7630;50.306;8.566;2023-07-20T15:20:53;97660.00;;;27.90
15062;BMP180;7630;50.306;8.566;2023-07-20T15:24:55;97661.00;;;27.40
15062;BMP180;7630;50.306;8.566;2023-07-20T15:28:56;97654.00;;;26.70
15062;BMP180;7630;50.306;8.566;2023-07-20T15:32:57;97658.00;;;27.20
15062;BMP180;7630;50.306;8.566;2023-07-20T15:37:00;97654.00;;;26.70
15062;BMP180;7630;50.306;8.566;2023-07-20T15:41:01;97638.00;;;28.00
15062;BMP180;7630;50.306;8.566;2023-07-20T15:45:02;97642.00;;;28.50
15062;BMP180;7630;50.306;8.566;2023-07-20T15:49:05;97633.00;;;28.00
15062;BMP180;7630;50.306;8.566;2023-07-20T15:53:06;97643.00;;;26.90
15062;BMP180;7630;50.306;8.566;2023-07-20T15:57:07;97643.00;;;26.70
15062;BMP180;7630;50.306;8.566;2023-07-20T16:01:11;97630.00;;;25.80
15062;BMP180;7630;50.306;8.566;2023-07-20T16:05:12;97631.00;;;25.40
15062;BMP180;7630;50.306;8.566;2023-07-20T16:09:15;97626.00;;;26.50
15062;BMP180;7630;50.306;8.566;2023-07-20T16:13:16;97609.00;;;27.20
15062;BMP180;7630;50.306;8.566;2023-07-20T16:17:17;97612.00;;;26.50
15062;BMP180;7630;50.306;8.566;2023-07-20T16:21:18;97617.00;;;27.00
15062;BMP180;7630;50.306;8.566;2023-07-20T16:25:19;97625.00;;;27.10
15062;BMP180;7630;50.306;8.566;2023-07-20T16:29:21;97619.00;;;26.40
15062;BMP180;7630;50.306;8.566;2023-07-20T16:33:24;97610.00;;;26.60
15062;BMP180;7630;50.306;8.566;2023-07-20T16:37:25;97609.00;;;27.00
15062;BMP180;7630;50.306;8.566;2023-07-20T16:41:28;97612.00;;;25.90
15062;BMP180;7630;50.306;8.566;2023-07-20T16:45:34;97608.00;;;26.40
15062;BMP180;7630;50.306;8.566;2023-07-20T16:49:36;97610.00;;;26.90
15062;BMP180;7630;50.306;8.566;2023-07-20T16:53:37;97601.00;;;26.10
15062;BMP180;7630;50.306;8.566;2023-07-20T16:57:38;97607.00;;;26.40
15062;BMP180;7630;50.306;8.566;2023-07-20T17:01:40;97595.00;;;24.60
15062;BMP180;7630;50.306;8.566;2023-07-20T17:05:44;97605.00;;;25.10
15062;BMP180;7630;50.306;8.566;2023-07-20T17:09:46;97597.00;;;24.90
15062;BMP180;7630;50.306;8.566;2023-07-20T17:13:47;97599.00;;;24.10
15062;BMP180;7630;50.306;8.566;2023-07-20T17:17:48;97604.00;;;24.30
15062;BMP180;7630;50.306;8.566;2023-07-20T17:21:51;97601.00;;;24.50
15062;BMP180;7630;50.306;8.566;2023-07-20T17:25:52;97596.00;;;24.90
15062;BMP180;7630;50.306;8.566;2023-07-20T17:29:55;97599.00;;;24.40
15062;BMP180;7630;50.306;8.566;2023-07-20T17:33:58;97596.00;;;24.50
15062;BMP180;7630;50.306;8.566;2023-07-20T17:38:00;97586.00;;;24.90
15062;BMP180;7630;50.306;8.566;2023-07-20T17:42:03;97587.00;;;25.10
15062;BMP180;7630;50.306;8.566;2023-07-20T17:46:06;97580.00;;;24.70
15062;BMP180;7630;50.306;8.566;2023-07-20T17:50:09;97579.00;;;24.80
15062;BMP180;7630;50.306;8.566;2023-07-20T17:54:15;97586.00;;;24.30
15062;BMP180;7630;50.306;8.566;2023-07-20T17:58:16;97583.00;;;24.70
15062;BMP180;7630;50.306;8.566;2023-07-20T18:02:17;97585.00;;;24.20
15062;BMP180;7630;50.306;8.566;2023-07-20T18:06:19;97581.00;;;23.90
15062;BMP180;7630;50.306;8.566;2023-07-20T18:10:20;97584.00;;;24.30
15062;BMP180;7630;50.306;8.566;2023-07-20T18:14:21;97574.00;;;23.70
15062;BMP180;7630;50.306;8.566;2023-07-20T18:18:22;97578.00;;;24.70
15062;BMP180;7630;50.306;8.566;2023-07-20T18:22:24;97576.00;;;24.50
15062;BMP180;7630;50.306;8.566;2023-07-20T18:26:25;97573.00;;;24.70
15062;BMP180;7630;50.306;8.566;2023-07-20T18:30:26;97575.00;;;24.00
15062;BMP180;7630;50.306;8.566;2023-07-20T18:34:29;97567.00;;;23.70
15062;BMP180;7630;50.306;8.566;2023-07-20T18:38:30;97585.00;;;24.00
15062;BMP180;7630;50.306;8.566;2023-07-20T18:42:34;97578.00;;;23.60
15062;BMP180;7630;50.306;8.566;2023-07-20T18:46:35;97578.00;;;24.40
15062;BMP180;7630;50.306;8.566;2023-07-20T18:50:36;97576.00;;;24.40
15062;BMP180;7630;50.306;8.566;2023-07-20T18:54:37;97582.00;;;24.50
15062;BMP180;7630;50.306;8.566;2023-07-20T18:58:38;97586.00;;;24.30
15062;BMP180;7630;50.306;8.566;2023-07-20T19:02:39;97584.00;;;24.30
15062;BMP180;7630;50.306;8.566;2023-07-20T19:06:41;97582.00;;;24.40
15062;BMP180;7630;50.306;8.566;2023-07-20T19:10:42;97587.00;;;24.20
15062;BMP180;7630;50.306;8.566;2023-07-20T19:14:45;97588.00;;;23.60
15062;BMP180;7630;50.306;8.566;2023-07-20T19:18:48;97592.00;;;23.60
15062;BMP180;7630;50.306;8.566;2023-07-20T19:22:49;97590.00;;;23.50
15062;BMP180;7630;50.306;8.566;2023-07-20T19:26:50;97593.00;;;23.30
15062;BMP180;7630;50.306;8.566;2023-07-20T19:30:51;97595.00;;;23.30
15062;BMP180;7630;50.306;8.566;2023-07-20T19:34:52;97601.00;;;22.70
15062;BMP180;7630;50.306;8.566;2023-07-20T19:38:54;97603.00;;;23.20
15062;BMP180;7630;50.306;8.566;2023-07-20T19:42:55;97597.00;;;23.00
15062;BMP180;7630;50.306;8.566;2023-07-20T19:46:56;97608.00;;;23.40
15062;BMP180;7630;50.306;8.566;2023-07-20T19:50:58;97603.00;;;23.10
15062;BMP180;7630;50.306;8.566;2023-07-20T19:54:59;97613.00;;;22.70
15062;BMP180;7630;50.306;8.566;2023-07-20T19:59:03;97609.00;;;22.70
15062;BMP180;7630;50.306;8.566;2023-07-20T20:03:04;97612.00;;;22.40
15062;BMP180;7630;50.306;8.566;2023-07-20T20:07:07;97616.00;;;21.90
15062;BMP180;7630;50.306;8.566;2023-07-20T20:11:11;97610.00;;;22.40
15062;BMP180;7630;50.306;8.566;2023-07-20T20:15:14;97605.00;;;22.30
15062;BMP180;7630;50.306;8.566;2023-07-20T20:19:16;97607.00;;;22.10
15062;BMP180;7630;50.306;8.566;2023-07-20T20:23:18;97602.00;;;22.10
15062;BMP180;7630;50.306;8.566;2023-07-20T20:27:19;97594.00;;;22.00
15062;BMP180;7630;50.306;8.566;2023-07-20T20:31:20;97599.00;;;22.00
15062;BMP180;7630;50.306;8.566;2023-07-20T20:35:22;97594.00;;;21.80
15062;BMP180;7630;50.306;8.566;2023-07-20T20:39:23;97595.00;;;21.80
15062;BMP180;7630;50.306;8.566;2023-07-20T20:43:25;97591.00;;;21.80
15062;BMP180;7630;50.306;8.566;2023-07-20T20:47:28;97592.00;;;21.50
15062;BMP180;7630;50.306;8.566;2023-07-20T20:51:30;97585.00;;;21.60
15062;BMP180;7630;50.306;8.566;2023-07-20T20:55:33;97583.00;;;21.40
15062;BMP180;7630;50.306;8.566;2023-07-20T20:59:34;97584.00;;;21.50
15062;BMP180;7630;50.306;8.566;2023-07-20T21:03:40;97588.00;;;21.40
15062;BMP180;7630;50.306;8.566;2023-07-20T21:07:42;97584.00;;;21.50
15062;BMP180;7630;50.306;8.566;2023-07-20T21:11:43;97578.00;;;21.50
15062;BMP180;7630;50.306;8.566;2023-07-20T21:15:44;97572.00;;;21.50
15062;BMP180;7630;50.306;8.566;2023-07-20T21:19:46;97573.00;;;21.40
15062;BMP180;7630;50.306;8.566;2023-07-20T21:23:47;97575.00;;;21.00
15062;BMP180;7630;50.306;8.566;2023-07-20T21:27:48;97571.00;;;21.00
15062;BMP180;7630;50.306;8.566;2023-07-20T21:31:49;97574.00;;;21.00
15062;BMP180;7630;50.306;8.566;2023-07-20T21:35:51;97571.00;;;21.10
15062;BMP180;7630;50.306;8.566;2023-07-20T21:39:52;97568.00;;;21.00
15062;BMP180;7630;50.306;8.566;2023-07-20T21:43:53;97578.00;;;21.20
15062;BMP180;7630;50.306;8.566;2023-07-20T21:47:54;97571.00;;;21.10
15062;BMP180;7630;50.306;8.566;2023-07-20T21:51:55;97577.00;;;21.00
15062;BMP180;7630;50.306;8.566;2023-07-20T21:55:57;97573.00;;;21.10
15062;BMP180;7630;50.306;8.566;2023-07-20T21:59:58;97571.00;;;20.90
15062;BMP180;7630;50.306;8.566;2023-07-20T22:03:59;97567.00;;;20.90
15062;BMP180;7630;50.306;8.566;2023-07-20T22:08:00;97570.00;;;20.90
15062;BMP180;7630;50.306;8.566;2023-07-20T22:12:02;97566.00;;;20.80
15062;BMP180;7630;50.306;8.566;2023-07-20T22:16:05;97563.00;;;20.80
15062;BMP180;7630;50.306;8.566;2023-07-20T22:20:08;97562.00;;;20.70
15062;BMP180;7630;50.306;8.566;2023-07-20T22:24:09;97557.00;;;20.80
15062;BMP180;7630;50.306;8.566;2023-07-20T22:28:10;97546.00;;;20.70
15062;BMP180;7630;50.306;8.566;2023-07-20T22:32:11;97553.00;;;20.60
15062;BMP180;7630;50.306;8.566;2023-07-20T22:36:13;97555.00;;;20.90
15062;BMP180;7630;50.306;8.566;2023-07-20T22:40:14;97552.00;;;20.70
15062;BMP180;7630;50.306;8.566;2023-07-20T22:44:15;97554.00;;;20.60
15062;BMP180;7630;50.306;8.566;2023-07-20T22:48:16;97551.00;;;20.60
15062;BMP180;7630;50.306;8.566;2023-07-20T22:52:18;97544.00;;;20.70
15062;BMP180;7630;50.306;8.566;2023-07-20T22:56:19;97553.00;;;20.80
15062;BMP180;7630;50.306;8.566;2023-07-20T23:00:20;97547.00;;;20.40
15062;BMP180;7630;50.306;8.566;2023-07-20T23:04:23;97545.00;;;20.50
15062;BMP180;7630;50.306;8.566;2023-07-20T23:08:25;97537.00;;;20.40
15062;BMP180;7630;50.306;8.566;2023-07-20T23:12:26;97511.00;;;20.60
15062;BMP180;7630;50.306;8.566;2023-07-20T23:16:27;97525.00;;;20.50
15062;BMP180;7630;50.306;8.566;2023-07-20T23:20:29;97522.00;;;20.60
15062;BMP180;7630;50.306;8.566;2023-07-20T23:24:30;97518.00;;;20.40
15062;BMP180;7630;50.306;8.566;2023-07-20T23:28:31;97529.00;;;20.50
15062;BMP180;7630;50.306;8.566;2023-07-20T23:32:33;97515.00;;;20.30
15062;BMP180;7630;50.306;8.566;2023-07-20T23:36:34;97500.00;;;20.30
15062;BMP180;7630;50.306;8.566;2023-07-20T23:40:35;97513.00;;;20.10
15062;BMP180;7630;50.306;8.566;2023-07-20T23:44:37;97505.00;;;20.30
15062;BMP180;7630;50.306;8.566;2023-07-20T23:48:40;97497.00;;;20.10
15062;BMP180;7630;50.306;8.566;2023-07-20T23:52:42;97497.00;;;20.30